Baltimore/Washington International Thurgood Marshal Airport
KBWI : now visible

Airfield :











YOU CAN JOIN US ON...

 
LOGIN :

Register | Disclaimer

   EN    FR    IT 

 









Legend :    VFR   Marginal VFR   IFR   Intensive IFR   Very Intensive IFR
Visi :
Ceiling :
>= 8 km
>= 3000ft
5 to 8 km
1000 to 3000 ft
1500m to 5 km
500 to 1000 ft
800 to 1500m
200 to 500 ft
< 800m
< 200 ft
Symbols :   Thunderstorms  Fog  Heavy snow  Heavy precipitations  Wind > 20 kt






- Airport Elevation : 146 ft
- IATA code : BWI


KBWI - Baltimore/Washington International Thurgood Marshal

CURRENT METAR :
  • 071954Z VRB04KT 10SM SCT037CB BKN070 BKN200 29/22 A3003 RMK AO2 SLP167 CB E MOV NE T02940217

EXPIRED METARs :
  • 071854Z 14006KT 10SM SCT038CB BKN070 BKN090 BKN200 29/22 A3006 RMK AO2 SLP177 CB OHD MOV NE TCU ALQDS T02940222
  • 071754Z 16007KT 10SM FEW032 BKN040 BKN070 BKN200 29/22 A3007 RMK AO2 SLP180 T02890217 10294 20244 58009

TAF KBWI
Valid from the 07 at 18:00 until the 09 at 00:00 UTC


071720Z 0718/0824 15005KT P6SM -SHRA VCTS BKN035CB BKN250
FM080300 09004KT 6SM BR VCTS SCT020CB BKN250
FM080600 VRB03KT P6SM SCT035 BKN080
FM081000 VRB03KT P6SM SCT003 BKN010
FM081400 03004KT P6SM SCT020 BKN025
FM081700 03004KT P6SM SCT025 BKN040
FM082200 07004KT P6SM FEW070 SCT250
KZDC FIR / North America



MET'MAP, your aeronautical weather chart ! - Copyright ORBIFLY December 2007 - Disclaimer

ORBIFLY MET'MAP TEAM :

Programming & Development : Alexandra Zaïnal
Concept & original design : Baudouin d'Aumeries
Assistance for programming : Marc-Olivier Méhu
Technical & hardware support : Manuel Goepfert

Contact : metmap@orbifly.com




SOURCES & CREDITS :

   NOAA       Earth
Advisory